Time;durP1;ratioP1;P1;durP2;ratioP2;P2;SDS_P1;SDS_P2;PMS_P1;PMS_P2;Temp;Humidity;BMP_temperature;BMP_pressure;BME280_temperature;BME280_humidity;BME280_pressure;Samples;Min_cycle;Max_cycle;Signal;HPM_P1;HPM_P2
2023/03/09 00:01:36;;;;;;;1.90;1.30;;;13.30;51.60;;;;;;5027587;28;20549;-68
2023/03/09 00:04:02;;;;;;;1.80;1.20;;;13.70;50.80;;;;;;5029435;28;20511;-68
2023/03/09 00:06:28;;;;;;;1.80;1.20;;;13.40;52.50;;;;;;5030225;28;20199;-68
2023/03/09 00:08:54;;;;;;;1.80;1.23;;;13.70;53.50;;;;;;5031017;28;20896;-69
2023/03/09 00:11:19;;;;;;;1.70;1.20;;;13.10;52.90;;;;;;5030732;28;20187;-69
2023/03/09 00:13:46;;;;;;;1.70;1.10;;;13.30;51.60;;;;;;5031225;28;20855;-68
2023/03/09 00:16:21;;;;;;;1.70;1.10;;;13.60;49.10;;;;;;5031044;28;20632;-69
2023/03/09 00:18:47;;;;;;;1.70;1.10;;;13.60;50.30;;;;;;5025805;28;20413;-67
2023/03/09 00:21:25;;;;;;;1.80;1.20;;;13.90;48.10;;;;;;5030132;28;20472;-67
2023/03/09 00:23:51;;;;;;;1.70;1.00;;;13.50;49.30;;;;;;5028089;28;20195;-69
2023/03/09 00:26:16;;;;;;;1.77;1.10;;;13.60;47.80;;;;;;5031160;28;20469;-69
2023/03/09 00:28:42;;;;;;;1.80;1.20;;;13.60;47.40;;;;;;5030963;28;20191;-69
2023/03/09 00:31:07;;;;;;;1.80;1.20;;;13.70;48.60;;;;;;5030574;28;20190;-71
2023/03/09 00:33:33;;;;;;;2.10;1.37;;;13.70;48.50;;;;;;5029253;28;20559;-70
2023/03/09 00:35:58;;;;;;;1.80;1.20;;;13.60;49.30;;;;;;5028972;28;20265;-70
2023/03/09 00:38:24;;;;;;;2.00;1.10;;;13.40;50.10;;;;;;5029916;28;20198;-69
2023/03/09 00:40:50;;;;;;;1.70;1.10;;;13.50;49.20;;;;;;5030248;28;20209;-69
2023/03/09 00:43:16;;;;;;;1.70;1.10;;;13.40;50.10;;;;;;5030161;28;21002;-69
2023/03/09 00:45:42;;;;;;;1.80;1.20;;;13.50;50.80;;;;;;5028788;28;21157;-71
2023/03/09 00:48:07;;;;;;;1.90;1.30;;;12.80;67.40;;;;;;5030324;28;20558;-71
2023/03/09 00:50:33;;;;;;;1.73;1.10;;;12.40;79.90;;;;;;5030242;28;20278;-70
2023/03/09 00:52:58;;;;;;;1.80;1.20;;;11.70;81.50;;;;;;5030285;28;20186;-70
2023/03/09 00:55:24;;;;;;;1.70;1.10;;;11.20;79.60;;;;;;5028797;28;20181;-72
2023/03/09 00:57:50;;;;;;;1.80;1.20;;;10.90;82.20;;;;;;5029872;28;20563;-73
2023/03/09 01:00:16;;;;;;;1.77;1.10;;;11.20;79.60;;;;;;5030556;28;20205;-73
2023/03/09 01:02:41;;;;;;;1.80;1.20;;;10.80;79.10;;;;;;5022068;28;20212;-73
2023/03/09 01:05:09;;;;;;;1.70;1.00;;;10.80;81.40;;;;;;5030944;28;20509;-71
2023/03/09 01:07:35;;;;;;;1.80;1.20;;;11.00;79.20;;;;;;5030410;28;20238;-70
2023/03/09 01:10:01;;;;;;;2.00;1.70;;;11.00;76.50;;;;;;5033787;28;20949;-71
2023/03/09 01:12:26;;;;;;;1.77;1.10;;;10.80;77.10;;;;;;5033744;28;20242;-72
2023/03/09 01:14:56;;;;;;;1.70;1.00;;;11.00;74.90;;;;;;5033951;28;20579;-73
2023/03/09 01:17:22;;;;;;;1.70;1.10;;;11.40;69.90;;;;;;5031738;28;20214;-72
2023/03/09 01:19:48;;;;;;;1.70;1.10;;;11.50;65.70;;;;;;5033443;28;20462;-72
2023/03/09 01:22:14;;;;;;;1.70;1.10;;;11.20;68.90;;;;;;5032979;28;20441;-72
2023/03/09 01:24:40;;;;;;;1.73;1.17;;;11.60;71.20;;;;;;5031527;28;20435;-70
2023/03/09 01:27:07;;;;;;;1.70;1.10;;;11.20;68.30;;;;;;5033307;28;20517;-70
2023/03/09 01:29:32;;;;;;;1.70;1.10;;;11.40;65.30;;;;;;5031433;28;20196;-71
2023/03/09 01:31:58;;;;;;;1.70;1.10;;;11.20;69.40;;;;;;5033250;28;20427;-70
2023/03/09 01:34:24;;;;;;;1.73;1.10;;;10.70;76.30;;;;;;5033024;28;20177;-72
2023/03/09 01:36:49;;;;;;;1.80;1.20;;;10.70;76.00;;;;;;5033311;28;20204;-72
2023/03/09 01:39:15;;;;;;;1.77;1.20;;;10.50;80.30;;;;;;5031458;28;20180;-71
2023/03/09 01:41:40;;;;;;;1.60;1.10;;;10.70;74.00;;;;;;5033108;28;20215;-71
2023/03/09 01:44:11;;;;;;;1.70;1.10;;;10.90;73.00;;;;;;5033107;28;20593;-72
2023/03/09 01:46:49;;;;;;;1.70;1.10;;;10.70;73.30;;;;;;5032344;28;20200;-71
2023/03/09 01:49:24;;;;;;;1.70;1.20;;;10.60;71.30;;;;;;5032445;28;20438;-71
2023/03/09 01:52:02;;;;;;;1.70;1.10;;;10.90;69.40;;;;;;5033279;28;20510;-71
2023/03/09 01:54:40;;;;;;;1.70;1.00;;;11.00;69.80;;;;;;5032700;28;20954;-71
2023/03/09 01:57:16;;;;;;;1.60;1.00;;;11.20;68.00;;;;;;5033875;28;20498;-71
2023/03/09 01:59:44;;;;;;;1.70;1.10;;;11.30;70.50;;;;;;5028637;28;20554;-71
2023/03/09 02:02:10;;;;;;;1.60;1.10;;;11.10;70.00;;;;;;5029569;28;20414;-70
2023/03/09 02:04:45;;;;;;;1.63;1.07;;;11.20;69.40;;;;;;5052917;28;20409;-70
2023/03/09 02:07:13;;;;;;;1.70;1.00;;;11.40;67.20;;;;;;5053708;28;20510;-70
2023/03/09 02:10:15;;;;;;;1.70;1.10;;;11.50;67.60;;;;;;5048722;28;20481;-70
2023/03/09 02:12:41;;;;;;;1.60;1.00;;;10.90;70.50;;;;;;5033035;28;20418;-70
2023/03/09 02:15:07;;;;;;;1.60;1.00;;;10.90;70.20;;;;;;5033707;28;20419;-70
2023/03/09 02:17:33;;;;;;;1.70;1.20;;;11.00;71.80;;;;;;5033175;28;20521;-70
2023/03/09 02:20:22;;;;;;;1.70;1.10;;;10.70;73.90;;;;;;5033407;28;20563;-70
2023/03/09 02:22:48;;;;;;;1.60;1.00;;;10.60;76.40;;;;;;5018912;28;20682;-70
2023/03/09 02:25:34;;;;;;;1.70;1.10;;;10.70;71.80;;;;;;5031010;28;20480;-71
2023/03/09 02:27:59;;;;;;;1.70;1.10;;;11.30;69.10;;;;;;5026440;28;21013;-71
2023/03/09 02:30:28;;;;;;;1.60;1.10;;;11.80;65.40;;;;;;5033447;28;20503;-71
2023/03/09 02:33:06;;;;;;;1.70;1.10;;;11.30;65.20;;;;;;5028640;28;20677;-71
2023/03/09 02:35:32;;;;;;;1.63;1.00;;;11.40;66.60;;;;;;5031547;28;20434;-71
2023/03/09 02:37:58;;;;;;;1.73;1.20;;;11.20;64.30;;;;;;5031501;28;20461;-71
2023/03/09 02:40:36;;;;;;;1.80;1.10;;;11.10;67.50;;;;;;5032078;28;20232;-70
2023/03/09 02:43:03;;;;;;;1.70;1.10;;;11.20;66.10;;;;;;5024539;28;20176;-71
2023/03/09 02:45:31;;;;;;;1.70;1.10;;;11.20;66.00;;;;;;5032107;28;20845;-70
2023/03/09 02:47:57;;;;;;;1.70;1.07;;;11.30;64.60;;;;;;5031851;28;20857;-71
2023/03/09 02:50:24;;;;;;;1.70;1.10;;;11.00;66.70;;;;;;5031221;28;20497;-71
2023/03/09 02:52:49;;;;;;;1.70;1.10;;;10.90;70.30;;;;;;5030001;28;20431;-70
2023/03/09 02:55:15;;;;;;;1.70;1.03;;;10.90;68.50;;;;;;5030314;28;21031;-70
2023/03/09 02:57:41;;;;;;;1.60;1.00;;;11.10;65.00;;;;;;5031686;28;20457;-70
2023/03/09 03:00:08;;;;;;;1.70;1.10;;;10.90;65.70;;;;;;5032004;28;20242;-70
2023/03/09 03:02:35;;;;;;;1.70;1.00;;;10.70;67.60;;;;;;5029059;28;20439;-68
2023/03/09 03:05:00;;;;;;;1.80;1.10;;;11.10;68.30;;;;;;5030143;28;20187;-70
2023/03/09 03:07:26;;;;;;;1.70;1.10;;;10.90;65.90;;;;;;5031499;28;20825;-69
2023/03/09 03:09:52;;;;;;;1.70;1.00;;;10.80;67.60;;;;;;5032006;28;20177;-70
2023/03/09 03:12:18;;;;;;;1.73;1.10;;;10.70;68.80;;;;;;5031714;28;20272;-70
2023/03/09 03:14:44;;;;;;;1.70;1.10;;;10.70;67.70;;;;;;5029476;28;20172;-70
2023/03/09 03:17:10;;;;;;;1.70;1.10;;;10.90;67.90;;;;;;5030861;28;20453;-70
2023/03/09 03:19:35;;;;;;;1.60;1.00;;;10.80;68.90;;;;;;5030299;28;20455;-70
2023/03/09 03:22:01;;;;;;;1.70;1.10;;;11.00;68.50;;;;;;5031479;28;20671;-71
2023/03/09 03:24:26;;;;;;;1.70;1.00;;;10.90;68.70;;;;;;5030370;28;20264;-71
2023/03/09 03:26:52;;;;;;;1.90;1.30;;;11.00;68.20;;;;;;5029365;28;20194;-71
2023/03/09 03:29:17;;;;;;;1.60;1.00;;;11.00;68.60;;;;;;5030586;28;20692;-71
2023/03/09 03:31:43;;;;;;;1.70;1.00;;;11.10;67.50;;;;;;5030673;28;20192;-71
2023/03/09 03:34:09;;;;;;;1.70;1.10;;;11.50;69.40;;;;;;5023781;28;20189;-71
2023/03/09 03:36:34;;;;;;;1.60;1.10;;;11.40;65.30;;;;;;5031011;28;20208;-71
2023/03/09 03:39:00;;;;;;;1.60;1.00;;;11.40;66.00;;;;;;5023611;28;20181;-71
2023/03/09 03:41:25;;;;;;;1.70;1.10;;;11.30;67.10;;;;;;5023703;28;20196;-71
2023/03/09 03:43:51;;;;;;;1.60;1.10;;;11.20;70.60;;;;;;5031773;28;20637;-71
2023/03/09 03:46:17;;;;;;;1.60;1.00;;;11.00;73.60;;;;;;5032207;28;20553;-70
2023/03/09 03:48:42;;;;;;;1.60;1.00;;;11.00;74.20;;;;;;5022391;28;20184;-71
2023/03/09 03:51:08;;;;;;;1.50;1.00;;;10.80;77.40;;;;;;5031958;28;20184;-71
2023/03/09 03:53:34;;;;;;;1.70;1.10;;;10.90;78.20;;;;;;5030892;28;20255;-71
2023/03/09 03:56:00;;;;;;;1.63;1.10;;;11.40;72.60;;;;;;5030786;28;20177;-71
2023/03/09 03:58:26;;;;;;;1.70;1.20;;;11.10;74.90;;;;;;5028792;28;20177;-71
2023/03/09 04:00:52;;;;;;;1.63;1.10;;;10.80;78.20;;;;;;5028353;28;20471;-71
2023/03/09 04:03:17;;;;;;;2.07;1.40;;;10.90;75.80;;;;;;5031273;28;20208;-70
2023/03/09 04:05:43;;;;;;;1.60;1.10;;;10.70;75.40;;;;;;5031535;28;20177;-71
2023/03/09 04:08:09;;;;;;;1.70;1.10;;;10.50;77.10;;;;;;5028857;28;20200;-71
2023/03/09 04:10:38;;;;;;;1.80;1.20;;;11.10;73.20;;;;;;5030404;28;20485;-71
2023/03/09 04:13:04;;;;;;;1.67;1.10;;;11.20;66.90;;;;;;5030224;28;20192;-71
2023/03/09 04:15:32;;;;;;;1.73;1.10;;;11.10;66.80;;;;;;5031415;28;20788;-71
2023/03/09 04:17:57;;;;;;;1.67;1.10;;;11.10;64.30;;;;;;5030685;28;20274;-71
2023/03/09 04:20:23;;;;;;;1.70;1.10;;;10.90;64.70;;;;;;5020662;28;20510;-70
2023/03/09 04:22:49;;;;;;;1.80;1.20;;;10.70;61.60;;;;;;5029554;28;20546;-71
2023/03/09 04:25:15;;;;;;;1.70;1.10;;;11.10;62.80;;;;;;5030730;28;20179;-71
2023/03/09 04:27:41;;;;;;;1.70;1.00;;;11.00;58.70;;;;;;5029963;28;20439;-72
2023/03/09 04:30:08;;;;;;;1.80;1.20;;;10.90;60.00;;;;;;5028904;28;20181;-71
2023/03/09 04:32:33;;;;;;;1.80;1.10;;;10.80;58.60;;;;;;5029186;28;20999;-71
2023/03/09 04:34:59;;;;;;;1.70;1.10;;;10.60;61.10;;;;;;5030533;28;20431;-71
2023/03/09 04:37:24;;;;;;;1.70;1.00;;;10.80;59.70;;;;;;5030504;28;20203;-71
2023/03/09 04:39:50;;;;;;;3.50;1.60;;;11.00;59.30;;;;;;5030273;28;20196;-69
2023/03/09 04:42:15;;;;;;;3.07;2.07;;;11.10;58.90;;;;;;5030422;28;20185;-71
2023/03/09 04:44:41;;;;;;;1.70;1.10;;;11.60;55.20;;;;;;5026819;28;20255;-71
2023/03/09 04:47:10;;;;;;;1.70;1.00;;;11.50;55.90;;;;;;5034272;28;20192;-71
2023/03/09 04:49:36;;;;;;;1.60;1.00;;;11.30;57.80;;;;;;5030657;28;20213;-71
2023/03/09 04:52:02;;;;;;;1.70;1.00;;;11.40;54.70;;;;;;5029925;28;21166;-71
2023/03/09 04:54:27;;;;;;;1.70;1.10;;;11.30;56.40;;;;;;5032608;28;20254;-71
2023/03/09 04:56:53;;;;;;;1.70;1.10;;;11.50;56.00;;;;;;5032086;28;20209;-71
2023/03/09 04:59:19;;;;;;;1.70;1.03;;;11.60;53.50;;;;;;5032567;28;20268;-71
2023/03/09 05:01:44;;;;;;;2.40;1.60;;;11.80;54.10;;;;;;5033808;28;20205;-71
2023/03/09 05:04:10;;;;;;;1.80;1.13;;;11.50;53.60;;;;;;5033176;28;20175;-71
2023/03/09 05:06:35;;;;;;;1.70;1.00;;;11.40;54.70;;;;;;5029710;28;20274;-70
2023/03/09 05:09:03;;;;;;;1.70;1.00;;;11.50;52.80;;;;;;5034387;28;20222;-71
2023/03/09 05:11:28;;;;;;;1.70;1.00;;;11.30;54.10;;;;;;5032993;28;20212;-70
2023/03/09 05:13:54;;;;;;;1.80;1.10;;;10.90;56.40;;;;;;5032952;28;20917;-71
2023/03/09 05:16:20;;;;;;;2.87;1.73;;;11.20;55.90;;;;;;5033783;28;20572;-70
2023/03/09 05:18:49;;;;;;;1.80;1.10;;;11.30;55.20;;;;;;5032795;28;20176;-70
2023/03/09 05:21:15;;;;;;;1.70;1.10;;;11.50;54.10;;;;;;5031799;28;20204;-71
2023/03/09 05:23:41;;;;;;;1.90;1.13;;;11.30;53.90;;;;;;5024907;28;20462;-71
2023/03/09 05:26:07;;;;;;;1.70;1.10;;;11.70;52.90;;;;;;5033463;28;20513;-71
2023/03/09 05:28:37;;;;;;;1.70;1.10;;;11.70;51.50;;;;;;5033273;28;20656;-71
2023/03/09 05:31:07;;;;;;;1.80;1.20;;;11.90;50.60;;;;;;5032171;28;20439;-71
2023/03/09 05:33:33;;;;;;;1.80;1.13;;;12.20;50.60;;;;;;5032770;28;20415;-71
2023/03/09 05:35:58;;;;;;;1.70;1.10;;;12.20;50.20;;;;;;5033676;28;20461;-71
2023/03/09 05:38:24;;;;;;;1.70;1.10;;;12.50;47.80;;;;;;5034547;28;20173;-71
2023/03/09 05:40:49;;;;;;;1.70;1.07;;;12.70;46.90;;;;;;5034297;28;20203;-70
2023/03/09 05:43:15;;;;;;;1.73;1.10;;;12.50;47.40;;;;;;5024743;28;20204;-70
2023/03/09 05:45:41;;;;;;;1.70;1.10;;;12.30;48.40;;;;;;5042179;28;20188;-71
2023/03/09 05:48:06;;;;;;;2.57;1.23;;;12.60;47.50;;;;;;5034125;28;20242;-71
2023/03/09 05:50:32;;;;;;;1.80;1.20;;;12.40;48.30;;;;;;5034263;28;20539;-70
2023/03/09 05:52:58;;;;;;;2.27;1.40;;;12.70;46.90;;;;;;5032695;28;20215;-71
2023/03/09 05:55:24;;;;;;;1.70;1.10;;;13.10;47.30;;;;;;5032998;28;20809;-69
2023/03/09 05:57:49;;;;;;;1.70;1.00;;;12.10;48.90;;;;;;5031866;28;20200;-70
2023/03/09 06:00:16;;;;;;;1.70;1.10;;;12.20;49.20;;;;;;5019853;22;20237;-74
2023/03/09 06:02:42;;;;;;;1.70;1.10;;;12.20;49.80;;;;;;4997081;28;20180;-75
2023/03/09 06:05:07;;;;;;;1.70;1.10;;;12.30;50.70;;;;;;4993655;28;20500;-74
2023/03/09 06:07:33;;;;;;;1.87;1.20;;;12.00;50.40;;;;;;4993119;28;20170;-75
2023/03/09 06:09:58;;;;;;;1.70;1.10;;;12.20;50.60;;;;;;4994319;28;20618;-74
2023/03/09 06:12:25;;;;;;;1.70;1.10;;;12.10;50.50;;;;;;4993898;28;20182;-74
2023/03/09 06:14:51;;;;;;;1.80;1.10;;;12.50;48.50;;;;;;4993330;28;20229;-74
2023/03/09 06:17:18;;;;;;;1.70;1.10;;;12.70;50.30;;;;;;4992341;28;20425;-75
2023/03/09 06:19:44;;;;;;;1.70;1.10;;;12.20;52.30;;;;;;4993329;28;20444;-75
2023/03/09 06:22:10;;;;;;;1.90;1.30;;;12.10;50.50;;;;;;4992706;28;20444;-75
2023/03/09 06:24:36;;;;;;;1.80;1.20;;;12.60;49.00;;;;;;4994068;28;20785;-75
2023/03/09 06:27:02;;;;;;;1.73;1.20;;;12.20;50.60;;;;;;4991885;28;20428;-75
2023/03/09 06:29:28;;;;;;;3.00;1.40;;;12.10;49.60;;;;;;4993238;28;20198;-75
2023/03/09 06:31:54;;;;;;;1.80;1.20;;;11.90;51.30;;;;;;4993147;28;20435;-75
2023/03/09 06:34:20;;;;;;;1.70;1.00;;;12.10;50.50;;;;;;4993060;28;20433;-74
2023/03/09 06:36:46;;;;;;;1.70;1.10;;;12.00;50.50;;;;;;4991812;28;20607;-75
2023/03/09 06:39:12;;;;;;;1.70;1.10;;;11.80;50.20;;;;;;4992856;28;20496;-75
2023/03/09 06:41:38;;;;;;;1.70;1.10;;;12.40;50.80;;;;;;4993013;28;20463;-75
2023/03/09 06:44:04;;;;;;;1.90;1.40;;;11.90;50.30;;;;;;4990395;28;20681;-74
2023/03/09 06:46:30;;;;;;;1.70;1.20;;;12.00;50.50;;;;;;4990981;28;20232;-75
2023/03/09 06:48:56;;;;;;;1.70;1.10;;;12.40;49.30;;;;;;4993853;28;20496;-74
2023/03/09 06:51:22;;;;;;;1.70;1.10;;;12.60;48.40;;;;;;4993157;28;20476;-75
2023/03/09 06:53:48;;;;;;;1.70;1.10;;;12.60;49.20;;;;;;4989611;28;20516;-75
2023/03/09 06:56:14;;;;;;;1.80;1.23;;;12.90;48.10;;;;;;4992599;28;20507;-74
2023/03/09 06:58:40;;;;;;;1.63;1.10;;;13.20;45.80;;;;;;4996018;28;20491;-74
2023/03/09 07:01:11;;;;;;;2.00;1.40;;;13.30;43.90;;;;;;4997852;28;20460;-75
2023/03/09 07:03:37;;;;;;;1.60;1.10;;;12.50;45.60;;;;;;4996998;28;20809;-75
2023/03/09 07:06:03;;;;;;;1.67;1.10;;;12.50;47.10;;;;;;4990461;28;20433;-76
2023/03/09 07:08:29;;;;;;;1.70;1.10;;;12.20;47.70;;;;;;4997129;28;20456;-75
2023/03/09 07:10:54;;;;;;;1.67;1.10;;;11.80;49.30;;;;;;4998933;28;20174;-80
2023/03/09 07:13:20;;;;;;;1.70;1.20;;;11.90;48.30;;;;;;4992921;28;20186;-79
2023/03/09 07:15:46;;;;;;;1.70;1.20;;;12.00;47.80;;;;;;4991885;28;20186;-78
2023/03/09 07:18:12;;;;;;;1.60;1.10;;;12.00;47.80;;;;;;5003482;28;20198;-79
2023/03/09 07:20:39;;;;;;;1.63;1.07;;;12.20;48.00;;;;;;4997957;28;20594;-79
2023/03/09 07:23:05;;;;;;;1.70;1.20;;;12.00;48.00;;;;;;4991846;28;20174;-78
2023/03/09 07:25:34;;;;;;;1.60;1.10;;;11.50;50.00;;;;;;4999108;28;20809;-77
2023/03/09 07:28:00;;;;;;;1.80;1.20;;;12.20;49.10;;;;;;4990762;28;20444;-79
2023/03/09 07:30:28;;;;;;;1.70;1.10;;;12.10;47.00;;;;;;4992611;28;20460;-76
2023/03/09 07:32:55;;;;;;;1.80;1.30;;;11.70;46.90;;;;;;4993824;28;20427;-77
2023/03/09 07:35:20;;;;;;;1.70;1.10;;;11.90;47.50;;;;;;4998765;28;20836;-77
2023/03/09 07:37:46;;;;;;;1.77;1.20;;;11.80;47.30;;;;;;4995480;28;20479;-79
2023/03/09 07:40:12;;;;;;;1.70;1.20;;;12.00;45.70;;;;;;4993368;28;20209;-75
2023/03/09 07:42:37;;;;;;;1.80;1.20;;;11.90;46.70;;;;;;4993693;28;20182;-74
2023/03/09 07:45:04;;;;;;;1.60;1.10;;;12.20;45.80;;;;;;4995491;28;20170;-74
2023/03/09 07:47:31;;;;;;;1.97;1.40;;;12.20;45.10;;;;;;4991365;28;20178;-75
2023/03/09 07:49:57;;;;;;;1.70;1.20;;;12.50;44.40;;;;;;4991374;28;20456;-74
2023/03/09 07:52:30;;;;;;;1.60;1.10;;;13.10;43.00;;;;;;4993103;28;20425;-76
2023/03/09 07:54:56;;;;;;;1.60;1.07;;;12.70;44.60;;;;;;4992416;28;20430;-76
2023/03/09 07:57:23;;;;;;;1.70;1.10;;;12.90;43.00;;;;;;4993189;28;20960;-75
2023/03/09 07:59:53;;;;;;;1.70;1.20;;;12.70;44.20;;;;;;4991747;28;20844;-76
2023/03/09 08:02:18;;;;;;;1.70;1.10;;;12.80;44.10;;;;;;4993317;28;20463;-76
2023/03/09 08:04:44;;;;;;;1.70;1.10;;;13.10;42.80;;;;;;4993215;28;20414;-77
2023/03/09 08:07:09;;;;;;;1.80;1.20;;;12.80;43.20;;;;;;4989795;28;20192;-75
2023/03/09 08:09:35;;;;;;;1.70;1.10;;;13.20;41.10;;;;;;4992380;28;20205;-76
2023/03/09 08:12:00;;;;;;;1.80;1.20;;;13.20;41.10;;;;;;4990020;28;20645;-76
2023/03/09 08:14:26;;;;;;;1.70;1.10;;;13.00;42.30;;;;;;4995327;28;20191;-76
2023/03/09 08:16:52;;;;;;;1.70;1.10;;;12.60;43.00;;;;;;4992432;28;20173;-76
2023/03/09 08:19:20;;;;;;;1.80;1.20;;;12.70;42.00;;;;;;4995899;28;20240;-75
2023/03/09 08:21:46;;;;;;;1.90;1.40;;;12.80;41.80;;;;;;4989506;28;20191;-75
2023/03/09 08:24:12;;;;;;;1.60;1.10;;;13.10;41.20;;;;;;4989588;28;20797;-75
2023/03/09 08:26:37;;;;;;;1.70;1.13;;;13.20;40.70;;;;;;4988197;28;20442;-75
2023/03/09 08:29:03;;;;;;;1.70;1.10;;;13.20;40.60;;;;;;4988818;28;20617;-75
2023/03/09 08:31:29;;;;;;;1.70;1.10;;;12.50;42.30;;;;;;4990359;28;20187;-75
2023/03/09 08:33:54;;;;;;;1.70;1.20;;;12.80;42.10;;;;;;4985569;28;20552;-75
2023/03/09 08:36:21;;;;;;;1.73;1.20;;;13.20;40.20;;;;;;4990715;28;20195;-75
2023/03/09 08:38:48;;;;;;;1.80;1.20;;;13.30;39.40;;;;;;4992458;28;20194;-76
2023/03/09 08:41:14;;;;;;;1.70;1.17;;;13.90;39.60;;;;;;4992209;28;20955;-75
2023/03/09 08:43:40;;;;;;;1.70;1.10;;;13.70;38.10;;;;;;4991921;28;20958;-74
2023/03/09 08:46:06;;;;;;;1.70;1.17;;;13.60;39.20;;;;;;4992302;28;20412;-75
2023/03/09 08:48:31;;;;;;;1.70;1.10;;;13.70;39.00;;;;;;4992330;28;20188;-76
2023/03/09 08:51:00;;;;;;;1.70;1.10;;;13.40;38.60;;;;;;4996553;28;20464;-76
2023/03/09 08:53:26;;;;;;;1.77;1.20;;;13.60;38.20;;;;;;4992608;28;20660;-77
2023/03/09 08:55:51;;;;;;;1.73;1.20;;;13.80;37.60;;;;;;4992451;28;20434;-76
2023/03/09 08:58:17;;;;;;;1.70;1.10;;;13.70;38.40;;;;;;4992592;28;20427;-75
2023/03/09 09:00:43;;;;;;;1.80;1.30;;;13.30;39.10;;;;;;4992257;28;20235;-75
2023/03/09 09:03:09;;;;;;;1.80;1.20;;;13.90;39.30;;;;;;4992026;28;20174;-75
2023/03/09 09:05:35;;;;;;;1.80;1.20;;;14.20;37.70;;;;;;4992194;28;20240;-74
2023/03/09 09:08:01;;;;;;;1.90;1.30;;;13.50;38.20;;;;;;4992035;28;20205;-74
2023/03/09 09:10:26;;;;;;;1.80;1.20;;;13.50;38.60;;;;;;4992230;28;20458;-75
2023/03/09 09:12:52;;;;;;;1.60;1.10;;;13.80;37.70;;;;;;4991891;28;20998;-76
2023/03/09 09:15:18;;;;;;;1.63;1.10;;;13.50;38.80;;;;;;4991815;28;20653;-75
2023/03/09 09:17:43;;;;;;;1.80;1.20;;;13.50;38.30;;;;;;4992049;28;20261;-75
2023/03/09 09:20:10;;;;;;;2.00;1.30;;;13.50;38.60;;;;;;4992032;28;20630;-74
2023/03/09 09:22:36;;;;;;;1.80;1.30;;;13.90;36.00;;;;;;4992072;28;20174;-75
2023/03/09 09:25:05;;;;;;;1.80;1.30;;;13.30;39.30;;;;;;4992085;28;20779;-74
2023/03/09 09:27:30;;;;;;;1.80;1.30;;;13.70;39.10;;;;;;4992592;28;20177;-76
2023/03/09 09:29:56;;;;;;;1.80;1.20;;;14.10;37.00;;;;;;4995220;28;20476;-75
2023/03/09 09:32:22;;;;;;;1.70;1.20;;;14.20;36.30;;;;;;4995420;28;20170;-75
2023/03/09 09:34:48;;;;;;;1.80;1.20;;;14.60;36.60;;;;;;4995326;28;20198;-75
2023/03/09 09:37:15;;;;;;;1.70;1.10;;;14.00;37.60;;;;;;4995386;28;20176;-75
2023/03/09 09:39:41;;;;;;;1.70;1.10;;;14.30;36.30;;;;;;4995500;28;20436;-74
2023/03/09 09:42:47;;;;;;;1.80;1.20;;;14.20;36.30;;;;;;4995095;28;20415;-75
2023/03/09 09:45:32;;;;;;;1.70;1.17;;;14.30;36.70;;;;;;4973513;28;20195;-75
2023/03/09 09:48:02;;;;;;;1.70;1.10;;;14.50;36.60;;;;;;4973946;28;20422;-75
2023/03/09 09:50:39;;;;;;;1.80;1.30;;;14.50;36.50;;;;;;4973463;28;21016;-76
2023/03/09 09:53:31;;;;;;;1.80;1.30;;;14.20;36.10;;;;;;4973633;28;20417;-75
2023/03/09 09:55:58;;;;;;;3.20;1.50;;;13.70;38.70;;;;;;4973865;28;20414;-75
2023/03/09 09:58:49;;;;;;;1.80;1.30;;;14.30;37.10;;;;;;4956850;28;20410;-75
2023/03/09 10:01:57;;;;;;;1.73;1.20;;;14.50;36.40;;;;;;4973109;28;20943;-75
2023/03/09 10:04:35;;;;;;;1.80;1.23;;;14.70;35.00;;;;;;4973080;28;20403;-75
2023/03/09 10:07:08;;;;;;;1.70;1.10;;;14.60;35.40;;;;;;4973220;28;20964;-75
2023/03/09 10:09:40;;;;;;;1.70;1.10;;;14.40;35.40;;;;;;4974432;28;20445;-75
2023/03/09 10:12:12;;;;;;;1.80;1.20;;;14.60;35.00;;;;;;4973941;28;20545;-75
2023/03/09 10:14:53;;;;;;;1.80;1.17;;;13.90;36.00;;;;;;4972845;28;20414;-76
2023/03/09 10:17:31;;;;;;;5.17;1.30;;;14.20;34.60;;;;;;4971570;28;20431;-75
2023/03/09 10:20:08;;;;;;;1.80;1.30;;;13.90;35.10;;;;;;4970823;28;20550;-74
2023/03/09 10:22:34;;;;;;;1.80;1.20;;;14.30;34.80;;;;;;4988807;28;20460;-72
2023/03/09 10:25:00;;;;;;;1.80;1.20;;;14.10;34.70;;;;;;4993154;28;20449;-74
2023/03/09 10:27:31;;;;;;;1.80;1.30;;;14.00;35.00;;;;;;4988589;28;21469;-75
2023/03/09 10:30:09;;;;;;;1.80;1.20;;;14.70;34.80;;;;;;4989274;28;20654;-75
2023/03/09 10:32:42;;;;;;;1.80;1.10;;;15.30;32.60;;;;;;4991717;28;20572;-75
2023/03/09 10:35:32;;;;;;;1.80;1.13;;;15.60;31.20;;;;;;4994270;28;20480;-74
2023/03/09 10:37:59;;;;;;;2.37;1.40;;;15.40;31.10;;;;;;4991290;28;20464;-76
2023/03/09 10:40:30;;;;;;;1.80;1.10;;;15.00;31.90;;;;;;4992653;28;20471;-74
2023/03/09 10:43:00;;;;;;;1.90;1.30;;;14.70;32.00;;;;;;4991564;28;20436;-75
2023/03/09 10:45:32;;;;;;;2.03;1.30;;;13.90;34.00;;;;;;4991280;28;20433;-75
2023/03/09 10:47:59;;;;;;;1.80;1.20;;;14.70;32.20;;;;;;4993981;28;20442;-76
2023/03/09 10:50:28;;;;;;;1.80;1.20;;;15.10;32.30;;;;;;4993762;28;20876;-75
2023/03/09 10:52:55;;;;;;;1.80;1.20;;;15.50;30.90;;;;;;4993633;28;20432;-76
2023/03/09 10:55:44;;;;;;;1.83;1.20;;;15.80;29.80;;;;;;4993850;28;20924;-75
2023/03/09 10:58:17;;;;;;;1.83;1.23;;;15.40;29.70;;;;;;4993559;28;20426;-76
2023/03/09 11:01:19;;;;;;;2.63;1.37;;;15.50;29.70;;;;;;4994886;28;20456;-75
2023/03/09 11:03:44;;;;;;;5.33;2.60;;;15.40;29.60;;;;;;4982277;28;20516;-75
2023/03/09 11:06:13;;;;;;;1.90;1.20;;;15.50;29.30;;;;;;4994800;28;20497;-76
2023/03/09 11:08:41;;;;;;;1.90;1.20;;;16.70;28.30;;;;;;4992728;28;20246;-76
2023/03/09 11:11:16;;;;;;;1.90;1.17;;;17.30;26.80;;;;;;4989242;28;20498;-76
2023/03/09 11:13:46;;;;;;;2.10;1.30;;;17.00;26.50;;;;;;4974373;28;20742;-76
2023/03/09 11:16:36;;;;;;;2.20;1.20;;;16.40;27.50;;;;;;4974293;28;20428;-76
2023/03/09 11:19:11;;;;;;;2.17;1.20;;;16.80;26.70;;;;;;4974539;28;20600;-74
2023/03/09 11:21:39;;;;;;;2.00;1.20;;;16.60;26.20;;;;;;4988552;28;20808;-77
2023/03/09 11:24:08;;;;;;;2.00;1.30;;;16.40;25.90;;;;;;4992602;28;20922;-77
2023/03/09 11:26:39;;;;;;;1.97;1.10;;;15.80;26.70;;;;;;4993674;28;20463;-76
2023/03/09 11:29:28;;;;;;;1.90;1.10;;;16.10;26.50;;;;;;4993944;28;20458;-77
2023/03/09 11:31:54;;;;;;;2.20;1.20;;;16.60;25.60;;;;;;4992824;28;20438;-75
2023/03/09 11:34:39;;;;;;;2.00;1.20;;;16.70;25.70;;;;;;4989801;28;20817;-77
2023/03/09 11:37:16;;;;;;;2.07;1.20;;;16.10;26.10;;;;;;4990626;28;20196;-76
2023/03/09 11:39:55;;;;;;;2.03;1.10;;;16.30;26.40;;;;;;4992660;28;20544;-77
2023/03/09 11:42:45;;;;;;;2.00;1.10;;;16.30;26.30;;;;;;4992905;28;20434;-77
2023/03/09 11:45:21;;;;;;;2.00;1.10;;;16.00;26.80;;;;;;4991114;28;20438;-77
2023/03/09 11:47:55;;;;;;;2.50;1.60;;;16.00;27.30;;;;;;4984621;28;20427;-76
2023/03/09 11:50:24;;;;;;;2.00;1.10;;;16.10;27.10;;;;;;4991731;28;20512;-76
2023/03/09 11:53:13;;;;;;;2.20;1.20;;;16.40;25.90;;;;;;4991977;28;20431;-78
2023/03/09 11:55:43;;;;;;;2.20;1.20;;;17.20;25.80;;;;;;4988291;28;20418;-75
2023/03/09 11:58:14;;;;;;;2.30;1.27;;;17.30;24.70;;;;;;4994859;28;20431;-76
2023/03/09 12:00:46;;;;;;;2.20;1.27;;;17.00;26.60;;;;;;5040747;23;20502;-68
2023/03/09 12:03:15;;;;;;;2.40;1.40;;;16.40;26.70;;;;;;4995331;28;20493;-72
2023/03/09 12:06:05;;;;;;;2.30;1.20;;;17.80;25.20;;;;;;4991378;28;20427;-68
2023/03/09 12:08:39;;;;;;;2.53;1.30;;;18.60;24.70;;;;;;4992455;28;20420;-68
2023/03/09 12:11:23;;;;;;;2.57;1.10;;;19.30;22.80;;;;;;4991817;28;20434;-68
2023/03/09 12:13:53;;;;;;;2.90;1.30;;;18.90;22.90;;;;;;4983445;28;20929;-68
2023/03/09 12:16:26;;;;;;;2.90;1.20;;;19.40;22.60;;;;;;4989216;28;20431;-68
2023/03/09 12:19:11;;;;;;;2.80;1.20;;;19.50;22.70;;;;;;4992207;28;20473;-68
2023/03/09 12:21:41;;;;;;;2.80;1.10;;;18.40;23.20;;;;;;4992550;28;20464;-69
2023/03/09 12:24:21;;;;;;;2.83;1.20;;;17.60;24.30;;;;;;4991582;28;20940;-68
2023/03/09 12:27:01;;;;;;;2.77;1.20;;;16.60;25.50;;;;;;4991310;28;20460;-68
2023/03/09 12:29:50;;;;;;;2.80;1.30;;;17.10;25.20;;;;;;4991167;28;20455;-68
2023/03/09 12:32:21;;;;;;;2.63;1.17;;;17.20;24.40;;;;;;4990414;28;20867;-68
2023/03/09 12:34:50;;;;;;;2.70;1.20;;;16.70;25.40;;;;;;4984640;28;20925;-68
2023/03/09 12:37:30;;;;;;;2.70;1.20;;;16.80;25.40;;;;;;4989089;28;20439;-74
2023/03/09 12:40:24;;;;;;;2.70;1.20;;;17.00;25.60;;;;;;4991205;28;20981;-70
2023/03/09 12:43:11;;;;;;;2.90;1.30;;;16.60;25.80;;;;;;4988904;28;20477;-68
2023/03/09 12:45:36;;;;;;;2.50;1.13;;;16.80;25.60;;;;;;4967877;28;20946;-72
2023/03/09 12:48:23;;;;;;;2.50;1.20;;;16.10;26.80;;;;;;4986456;28;20441;-68
2023/03/09 12:51:20;;;;;;;2.47;1.20;;;15.30;28.20;;;;;;4991819;28;20227;-68
2023/03/09 12:54:23;;;;;;;2.43;1.17;;;16.20;27.40;;;;;;4988756;28;20434;-68
2023/03/09 12:56:49;;;;;;;2.57;1.30;;;17.00;25.40;;;;;;4989243;28;20421;-68
2023/03/09 12:59:21;;;;;;;2.33;1.13;;;16.80;25.80;;;;;;4989159;28;20459;-68